createdAt,value
2019-04-11T00:00:50.723Z,5.47
2019-04-11T00:03:19.475Z,4.70
2019-04-11T00:05:47.371Z,5.10
2019-04-11T00:08:15.158Z,5.33
2019-04-11T00:10:42.863Z,5.23
2019-04-11T00:13:18.881Z,8.73
2019-04-11T00:15:40.431Z,6.57
2019-04-11T00:18:08.348Z,5.83
2019-04-11T00:20:36.184Z,7.13
2019-04-11T00:23:03.896Z,5.20
2019-04-11T00:25:31.748Z,5.50
2019-04-11T00:27:59.509Z,7.93
2019-04-11T00:30:28.205Z,6.87
2019-04-11T00:32:56.147Z,5.60
2019-04-11T00:35:23.888Z,7.70
2019-04-11T00:37:51.631Z,7.17
2019-04-11T00:40:19.983Z,6.93
2019-04-11T00:42:47.760Z,6.50
2019-04-11T00:45:15.845Z,8.67
2019-04-11T00:47:44.886Z,7.47
2019-04-11T00:50:12.792Z,8.30
2019-04-11T00:52:41.284Z,6.70
2019-04-11T00:55:09.120Z,8.97
2019-04-11T00:57:37.087Z,9.60
2019-04-11T01:00:05.527Z,6.70
2019-04-11T01:02:33.648Z,9.27
2019-04-11T01:05:01.494Z,6.87
2019-04-11T01:07:29.210Z,6.37
2019-04-11T01:09:56.953Z,7.07
2019-04-11T01:12:24.864Z,9.63
2019-04-11T01:14:53.144Z,9.30
2019-04-11T01:17:21.225Z,8.20
2019-04-11T01:19:49.123Z,7.43
2019-04-11T01:22:16.832Z,8.57
2019-04-11T01:24:44.586Z,8.03
2019-04-11T01:27:12.314Z,8.27
2019-04-11T01:29:40.061Z,11.40
2019-04-11T01:32:09.152Z,8.67
2019-04-11T01:34:37.123Z,10.27
2019-04-11T01:37:05.034Z,10.20
2019-04-11T01:39:49.954Z,8.80
2019-04-11T01:42:17.770Z,13.83
2019-04-11T01:44:46.000Z,11.17
2019-04-11T01:47:22.486Z,13.60
2019-04-11T01:49:50.402Z,9.97
2019-04-11T01:52:18.249Z,12.07
2019-04-11T01:55:05.387Z,15.87
2019-04-11T01:57:33.933Z,14.87
2019-04-11T02:00:02.010Z,11.70
2019-04-11T02:02:38.923Z,15.67
2019-04-11T02:05:12.902Z,14.13
2019-04-11T02:07:40.653Z,13.07
2019-04-11T02:10:08.522Z,14.07
2019-04-11T02:12:37.353Z,15.33
2019-04-11T02:15:06.120Z,18.90
2019-04-11T02:17:34.873Z,17.87
2019-04-11T02:20:02.847Z,15.27
2019-04-11T02:22:52.907Z,16.00
2019-04-11T02:25:46.970Z,16.63
2019-04-11T02:28:16.892Z,18.37
2019-04-11T02:30:48.374Z,19.63
2019-04-11T02:33:18.194Z,19.93
2019-04-11T02:35:47.117Z,22.50
2019-04-11T02:38:16.533Z,19.53
2019-04-11T02:40:45.349Z,17.63
2019-04-11T02:43:15.392Z,17.70
2019-04-11T02:45:56.929Z,19.63
2019-04-11T02:48:13.781Z,24.40
2019-04-11T02:50:43.346Z,20.37
2019-04-11T02:53:12.409Z,20.77
2019-04-11T02:55:41.705Z,22.77
2019-04-11T02:58:10.422Z,20.97
2019-04-11T03:00:40.208Z,23.00
2019-04-11T03:03:10.093Z,27.33
2019-04-11T03:05:39.401Z,23.73
2019-04-11T03:08:11.438Z,24.70
2019-04-11T03:10:37.782Z,20.80
2019-04-11T03:13:05.578Z,27.23
2019-04-11T03:15:48.866Z,25.17
2019-04-11T03:18:08.312Z,25.23
2019-04-11T03:20:40.830Z,25.07
2019-04-11T03:23:06.220Z,31.13
2019-04-11T03:25:33.032Z,28.63
2019-04-11T03:28:01.640Z,31.10
2019-04-11T03:30:51.822Z,31.50
2019-04-11T03:36:22.044Z,32.73
2019-04-11T03:38:18.387Z,28.87
2019-04-11T03:40:46.801Z,29.37
2019-04-11T03:43:08.919Z,30.43
2019-04-11T03:45:48.071Z,32.20
2019-04-11T03:48:10.589Z,33.20
2019-04-11T03:50:29.905Z,37.50
2019-04-11T03:52:56.296Z,30.77
2019-04-11T03:55:26.019Z,34.73
2019-04-11T03:57:56.786Z,35.30
2019-04-11T04:00:28.349Z,32.93
2019-04-11T04:02:55.386Z,34.10
2019-04-11T04:05:23.824Z,33.67
2019-04-11T04:07:52.490Z,36.20
2019-04-11T04:10:23.426Z,37.17
2019-04-11T04:12:51.857Z,36.73
2019-04-11T04:15:55.772Z,34.20
2019-04-11T04:18:32.131Z,39.53
2019-04-11T04:21:19.972Z,36.23
2019-04-11T04:23:49.828Z,34.43
2019-04-11T04:26:19.304Z,39.67
2019-04-11T04:28:48.075Z,39.50
2019-04-11T04:31:16.325Z,38.47
2019-04-11T04:33:45.475Z,39.67
2019-04-11T04:36:15.363Z,43.20
2019-04-11T04:38:44.559Z,41.23
2019-04-11T04:41:22.401Z,43.47
2019-04-11T04:43:44.344Z,44.93
2019-04-11T04:46:29.876Z,47.87
2019-04-11T04:48:43.350Z,42.63
2019-04-11T04:51:13.593Z,45.67
2019-04-11T04:53:41.121Z,45.33
2019-04-11T04:56:09.162Z,47.87
2019-04-11T04:58:39.830Z,46.23
2019-04-11T05:01:07.856Z,42.27
2019-04-11T05:03:35.766Z,49.60
2019-04-11T05:06:04.215Z,50.80
2019-04-11T05:08:32.563Z,45.33
2019-04-11T05:11:01.808Z,47.37
2019-04-11T05:13:30.258Z,48.40
2019-04-11T05:16:09.883Z,56.00
2019-04-11T05:18:32.184Z,55.03
2019-04-11T05:21:01.018Z,50.50
2019-04-11T05:23:29.784Z,59.97
2019-04-11T05:25:57.673Z,52.57
2019-04-11T05:28:25.509Z,46.17
2019-04-11T05:30:53.264Z,54.90
2019-04-11T05:33:21.235Z,49.60
2019-04-11T05:35:49.981Z,49.10
2019-04-11T05:38:18.867Z,50.20
2019-04-11T05:40:46.746Z,52.10
2019-04-11T05:43:15.515Z,46.50
2019-04-11T05:45:43.238Z,49.00
2019-04-11T05:48:21.939Z,51.87
2019-04-11T05:50:51.637Z,45.33
2019-04-11T05:53:19.889Z,45.13
2019-04-11T05:55:47.959Z,42.87
2019-04-11T05:58:16.135Z,44.93
2019-04-11T06:00:55.638Z,46.10
2019-04-11T06:03:23.909Z,43.53
2019-04-11T06:06:23.017Z,43.93
2019-04-11T06:11:28.507Z,47.10
2019-04-11T06:14:15.656Z,41.47
2019-04-11T06:16:50.302Z,44.27
2019-04-11T06:19:37.717Z,42.93
2019-04-11T06:22:08.581Z,46.67
2019-04-11T06:24:56.530Z,48.90
2019-04-11T06:27:28.787Z,46.53
2019-04-11T06:30:15.989Z,48.27
2019-04-11T06:33:02.528Z,48.47
2019-04-11T06:35:58.689Z,48.17
2019-04-11T06:38:47.138Z,46.57
2019-04-11T06:41:49.234Z,48.97
2019-04-11T06:44:39.783Z,47.33
2019-04-11T06:47:25.544Z,48.67
2019-04-11T06:50:06.905Z,45.63
2019-04-11T06:52:35.004Z,43.43
2019-04-11T06:55:25.029Z,48.63
2019-04-11T06:57:54.333Z,47.03
2019-04-11T07:00:23.087Z,48.13
2019-04-11T07:02:57.056Z,44.13
2019-04-11T07:05:26.737Z,42.67
2019-04-11T07:07:55.703Z,48.73
2019-04-11T07:10:28.622Z,53.40
2019-04-11T07:13:09.880Z,52.57
2019-04-11T07:15:42.648Z,51.07
2019-04-11T07:18:29.117Z,55.93
2019-04-11T07:21:06.328Z,54.53
2019-04-11T07:23:53.374Z,50.00
2019-04-11T07:26:25.106Z,50.07
2019-04-11T07:29:18.005Z,49.90
2019-04-11T07:32:13.795Z,54.77
2019-04-11T07:35:00.043Z,48.40
2019-04-11T07:37:44.753Z,63.20
2019-04-11T07:40:31.418Z,49.53
2019-04-11T07:43:18.974Z,57.63
2019-04-11T07:46:09.309Z,52.50
2019-04-11T07:48:40.207Z,53.17
2019-04-11T07:51:15.568Z,60.37
2019-04-11T07:53:46.482Z,58.93
2019-04-11T07:56:29.496Z,58.60
2019-04-11T07:59:00.834Z,52.73
2019-04-11T08:01:53.603Z,57.97
2019-04-11T08:04:53.313Z,54.83
2019-04-11T08:07:46.859Z,61.77
2019-04-11T08:10:19.193Z,54.10
2019-04-11T08:12:47.961Z,57.93
2019-04-11T08:15:53.721Z,48.53
2019-04-11T08:18:35.040Z,44.57
2019-04-11T08:21:21.801Z,47.67
2019-04-11T08:23:51.983Z,57.13
2019-04-11T08:26:37.988Z,35.03
2019-04-11T08:29:10.588Z,35.00
2019-04-11T08:31:57.676Z,38.30
2019-04-11T08:34:29.098Z,35.37
2019-04-11T08:37:15.695Z,29.90
2019-04-11T08:39:47.182Z,35.57
2019-04-11T08:42:33.747Z,36.23
2019-04-11T08:45:01.550Z,35.77
2019-04-11T08:47:46.042Z,31.13
2019-04-11T08:50:06.197Z,35.80
2019-04-11T08:52:56.190Z,29.70
2019-04-11T08:55:44.643Z,27.13
2019-04-11T08:58:09.485Z,26.33
2019-04-11T09:00:44.789Z,30.07
2019-04-11T09:03:34.629Z,29.47
2019-04-11T09:06:08.311Z,36.33
2019-04-11T09:09:02.785Z,26.63
2019-04-11T09:11:51.238Z,26.90
2019-04-11T09:14:38.448Z,30.00
2019-04-11T09:17:31.630Z,29.73
2019-04-11T09:20:17.365Z,31.20
2019-04-11T09:22:59.527Z,28.73
2019-04-11T09:25:45.759Z,37.33
2019-04-11T09:28:44.089Z,34.57
2019-04-11T09:31:41.481Z,39.37
2019-04-11T09:34:38.607Z,37.23
2019-04-11T09:37:16.799Z,35.50
2019-04-11T09:40:09.943Z,39.87
2019-04-11T09:42:55.692Z,41.73
2019-04-11T09:45:37.897Z,34.57
2019-04-11T09:48:44.290Z,35.70
2019-04-11T09:51:31.627Z,31.37
2019-04-11T09:54:08.566Z,32.03
2019-04-11T09:56:54.519Z,29.20
2019-04-11T09:59:27.561Z,30.60
2019-04-11T10:02:31.006Z,28.87
2019-04-11T10:05:02.599Z,31.77
2019-04-11T10:07:50.913Z,28.73
2019-04-11T10:10:46.205Z,29.27
2019-04-11T10:13:45.031Z,27.10
2019-04-11T10:16:31.784Z,25.60
2019-04-11T10:19:11.599Z,27.97
2019-04-11T10:21:42.094Z,28.33
2019-04-11T10:24:20.969Z,25.53
2019-04-11T10:26:56.311Z,28.87
2019-04-11T10:29:42.066Z,25.90
2019-04-11T10:32:10.742Z,29.80
2019-04-11T10:34:57.983Z,29.10
2019-04-11T10:37:25.785Z,24.40
2019-04-11T10:40:02.055Z,32.10
2019-04-11T10:42:30.670Z,32.37
2019-04-11T10:45:31.019Z,31.17
2019-04-11T10:48:01.228Z,33.67
2019-04-11T10:50:46.775Z,33.73
2019-04-11T10:53:14.963Z,38.00
2019-04-11T10:56:06.383Z,36.50
2019-04-11T10:58:37.898Z,37.63
2019-04-11T11:01:24.966Z,45.23
2019-04-11T11:04:15.793Z,45.43
2019-04-11T11:06:46.476Z,48.47
2019-04-11T11:09:36.778Z,44.10
2019-04-11T11:12:37.120Z,45.30
2019-04-11T11:15:13.912Z,42.77
2019-04-11T11:18:35.148Z,59.80
2019-04-11T11:20:48.896Z,54.57
2019-04-11T11:23:33.086Z,53.63
2019-04-11T11:26:09.056Z,59.10
2019-04-11T11:28:48.848Z,56.57
2019-04-11T11:31:27.996Z,60.73
2019-04-11T11:33:56.607Z,68.40
2019-04-11T11:36:43.738Z,64.90
2019-04-11T11:39:19.325Z,60.97
2019-04-11T11:42:06.187Z,66.10
2019-04-11T11:44:41.213Z,55.80
2019-04-11T11:47:27.840Z,74.00
2019-04-11T11:50:00.600Z,66.23
2019-04-11T11:52:51.094Z,62.33
2019-04-11T11:55:21.843Z,67.83
2019-04-11T11:58:09.077Z,59.20
2019-04-11T12:00:36.829Z,65.10
2019-04-11T12:03:33.059Z,65.43
2019-04-11T12:06:03.599Z,65.67
2019-04-11T12:08:50.896Z,69.97
2019-04-11T12:11:18.792Z,65.53
2019-04-11T12:14:11.741Z,67.20
2019-04-11T12:17:03.313Z,69.47
2019-04-11T12:19:44.667Z,62.17
2019-04-11T12:22:08.443Z,67.70
2019-04-11T12:24:48.700Z,60.90
2019-04-11T12:27:40.024Z,61.97
2019-04-11T12:30:23.425Z,70.00
2019-04-11T12:32:55.053Z,70.47
2019-04-11T12:35:36.002Z,70.60
2019-04-11T12:38:09.299Z,69.63
2019-04-11T12:41:07.231Z,69.67
2019-04-11T12:43:55.694Z,68.47
2019-04-11T12:46:41.348Z,63.47
2019-04-11T12:49:22.965Z,70.47
2019-04-11T12:52:08.844Z,76.63
2019-04-11T12:54:36.637Z,74.77
2019-04-11T12:57:41.867Z,70.70
2019-04-11T13:00:22.906Z,71.17
2019-04-11T13:03:08.672Z,71.63
2019-04-11T13:05:36.714Z,75.27
2019-04-11T13:08:22.373Z,73.40
2019-04-11T13:10:50.101Z,68.03
2019-04-11T13:13:32.555Z,71.67
2019-04-11T13:16:12.441Z,68.60
2019-04-11T13:18:56.829Z,67.03
2019-04-11T13:21:31.843Z,66.87
2019-04-11T13:24:18.418Z,64.87
2019-04-11T13:27:14.593Z,70.03
2019-04-11T13:30:04.529Z,70.40
2019-04-11T13:32:40.173Z,63.47
2019-04-11T13:35:18.547Z,69.30
2019-04-11T13:38:04.582Z,76.43
2019-04-11T13:40:51.803Z,68.00
2019-04-11T13:43:30.618Z,71.30
2019-04-11T13:46:10.582Z,69.43
2019-04-11T13:49:06.590Z,66.17
2019-04-11T13:51:58.441Z,69.57
2019-04-11T13:54:54.195Z,70.30
2019-04-11T13:57:56.589Z,73.00
2019-04-11T14:00:38.548Z,65.67
2019-04-11T14:03:28.541Z,86.40
2019-04-11T14:05:58.678Z,79.13
2019-04-11T14:08:32.578Z,79.40
2019-04-11T14:11:08.933Z,72.50
2019-04-11T14:13:43.084Z,76.23
2019-04-11T14:16:16.153Z,73.57
2019-04-11T14:19:01.759Z,76.63
2019-04-11T14:21:29.530Z,75.90
2019-04-11T14:24:22.514Z,80.83
2019-04-11T14:26:51.821Z,70.07
2019-04-11T14:29:26.703Z,73.10
2019-04-11T14:32:13.337Z,73.30
2019-04-11T14:35:09.428Z,69.73
2019-04-11T14:37:49.761Z,67.77
2019-04-11T14:40:42.055Z,72.87
2019-04-11T14:43:26.577Z,67.50
2019-04-11T14:46:13.743Z,71.60
2019-04-11T14:48:49.699Z,69.03
2019-04-11T14:51:36.873Z,66.10
2019-04-11T14:54:11.832Z,69.47
2019-04-11T14:56:44.768Z,67.20
2019-04-11T14:59:36.240Z,69.43
2019-04-11T15:02:08.521Z,68.87
2019-04-11T15:05:06.150Z,63.00
2019-04-11T15:07:35.289Z,74.40
2019-04-11T15:10:21.289Z,60.97
2019-04-11T15:12:49.045Z,57.07
2019-04-11T15:15:27.321Z,59.70
2019-04-11T15:17:59.732Z,57.67
2019-04-11T15:20:54.893Z,61.70
2019-04-11T15:23:20.035Z,50.43
2019-04-11T15:26:08.110Z,50.07
2019-04-11T15:28:55.308Z,55.00
2019-04-11T15:31:38.803Z,59.93
2019-04-11T15:34:17.183Z,75.37
2019-04-11T15:36:57.998Z,61.93
2019-04-11T15:39:51.413Z,71.30
2019-04-11T15:42:29.393Z,67.60
2019-04-11T15:45:31.741Z,71.47
2019-04-11T15:48:20.152Z,71.40
2019-04-11T15:51:06.685Z,65.23
2019-04-11T15:53:50.958Z,64.13
2019-04-11T15:56:40.890Z,68.80
2019-04-11T15:59:20.379Z,64.47
2019-04-11T16:02:10.542Z,74.03
2019-04-11T16:04:54.794Z,63.00
2019-04-11T16:07:47.998Z,65.97
2019-04-11T16:10:15.764Z,66.63
2019-04-11T16:12:51.573Z,65.83
2019-04-11T16:15:19.314Z,65.53
2019-04-11T16:18:04.841Z,64.53
2019-04-11T16:20:32.614Z,61.63
2019-04-11T16:23:26.956Z,66.47
2019-04-11T16:25:54.853Z,63.87
2019-04-11T16:28:41.994Z,62.87
2019-04-11T16:31:11.586Z,64.20
2019-04-11T16:34:01.275Z,63.57
2019-04-11T16:36:35.303Z,64.60
2019-04-11T16:39:26.761Z,60.73
2019-04-11T16:42:10.770Z,49.57
2019-04-11T16:44:57.941Z,41.50
2019-04-11T16:47:43.762Z,44.53
2019-04-11T16:50:11.473Z,40.20
2019-04-11T16:52:39.329Z,39.27
2019-04-11T16:55:09.821Z,38.63
2019-04-11T16:57:36.883Z,39.60
2019-04-11T17:00:08.941Z,40.03
2019-04-11T17:02:36.215Z,39.37
2019-04-11T17:05:05.499Z,35.67
2019-04-11T17:07:44.869Z,40.83
2019-04-11T17:10:13.108Z,40.40
2019-04-11T17:12:40.836Z,44.53
2019-04-11T17:15:08.578Z,48.97
2019-04-11T17:17:36.289Z,43.77
2019-04-11T17:20:06.446Z,52.97
2019-04-11T17:22:33.954Z,53.70
2019-04-11T17:25:01.783Z,58.60
2019-04-11T17:27:32.906Z,57.17
2019-04-11T17:30:00.661Z,55.27
2019-04-11T17:32:28.376Z,54.57
2019-04-11T17:34:56.111Z,53.77
2019-04-11T17:37:23.825Z,50.47
2019-04-11T17:39:51.637Z,53.20
2019-04-11T17:42:19.275Z,74.97
2019-04-11T17:44:47.185Z,46.27
2019-04-11T17:47:14.981Z,46.73
2019-04-11T17:49:42.615Z,50.60
2019-04-11T17:52:10.354Z,44.57
2019-04-11T17:54:39.109Z,44.00
2019-04-11T17:57:06.757Z,42.50
2019-04-11T17:59:34.473Z,42.67
2019-04-11T18:02:02.747Z,42.23
2019-04-11T18:04:30.477Z,42.47
2019-04-11T18:06:58.225Z,42.13
2019-04-11T18:09:26.464Z,47.83
2019-04-11T18:11:56.142Z,39.27
2019-04-11T18:14:23.695Z,46.87
2019-04-11T18:16:51.538Z,42.00
2019-04-11T18:19:19.241Z,46.50
2019-04-11T18:21:46.957Z,42.27
2019-04-11T18:24:14.678Z,41.53
2019-04-11T18:26:42.406Z,45.03
2019-04-11T18:29:10.150Z,44.50
2019-04-11T18:31:37.892Z,45.27
2019-04-11T18:34:05.609Z,46.80
2019-04-11T18:36:33.360Z,49.50
2019-04-11T18:39:04.211Z,51.20
2019-04-11T18:41:30.678Z,45.90
2019-04-11T18:43:58.385Z,55.27
2019-04-11T18:46:26.125Z,52.47
2019-04-11T18:48:54.577Z,55.00
2019-04-11T18:51:23.233Z,54.60
2019-04-11T18:53:51.422Z,57.13
2019-04-11T18:56:19.161Z,61.47
2019-04-11T18:58:46.956Z,58.47
2019-04-11T19:01:14.801Z,57.40
2019-04-11T19:03:42.649Z,62.07
2019-04-11T19:06:12.907Z,59.57
2019-04-11T19:08:43.159Z,61.37
2019-04-11T19:11:09.611Z,64.10
2019-04-11T19:13:37.365Z,66.73
2019-04-11T19:16:05.086Z,65.67
2019-04-11T19:18:32.849Z,61.83
2019-04-11T19:21:00.569Z,68.70
2019-04-11T19:23:28.293Z,69.13
2019-04-11T19:25:56.081Z,70.37
2019-04-11T19:28:25.206Z,67.03
2019-04-11T19:30:54.029Z,69.73
2019-04-11T19:33:22.885Z,71.03
2019-04-11T19:35:50.597Z,72.53
2019-04-11T19:38:36.690Z,76.13
2019-04-11T19:41:04.422Z,74.10
2019-04-11T19:43:32.160Z,77.50
2019-04-11T19:45:59.878Z,79.00
2019-04-11T19:48:27.609Z,79.30
2019-04-11T19:50:58.630Z,75.70
2019-04-11T19:53:24.886Z,75.37
2019-04-11T19:56:00.502Z,85.43
2019-04-11T19:58:28.974Z,77.70
2019-04-11T20:00:56.713Z,85.07
2019-04-11T20:03:24.770Z,85.90
2019-04-11T20:05:52.712Z,91.27
2019-04-11T20:08:20.457Z,85.43
2019-04-11T20:10:48.173Z,85.50
2019-04-11T20:13:15.925Z,91.87
2019-04-11T20:15:43.645Z,87.17
2019-04-11T20:18:11.408Z,88.27
2019-04-11T20:20:39.161Z,90.07
2019-04-11T20:23:10.520Z,93.23
2019-04-11T20:25:36.429Z,92.40
2019-04-11T20:28:04.146Z,88.37
2019-04-11T20:30:31.909Z,90.47
2019-04-11T20:33:02.889Z,93.50
2019-04-11T20:35:29.471Z,93.17
2019-04-11T20:37:57.233Z,91.57
2019-04-11T20:40:25.002Z,90.77
2019-04-11T20:42:54.423Z,88.33
2019-04-11T20:45:23.870Z,93.83
2019-04-11T20:47:51.597Z,96.90
2019-04-11T20:50:19.329Z,88.37
2019-04-11T20:52:47.029Z,95.30
2019-04-11T20:55:14.783Z,89.87
2019-04-11T20:57:42.514Z,94.93
2019-04-11T21:00:12.321Z,86.80
2019-04-11T21:02:39.782Z,88.47
2019-04-11T21:05:07.513Z,89.70
2019-04-11T21:07:35.221Z,98.73
2019-04-11T21:10:03.964Z,95.70
2019-04-11T21:12:32.432Z,86.17
2019-04-11T21:15:00.163Z,97.20
2019-04-11T21:17:27.890Z,94.80
2019-04-11T21:19:55.618Z,92.73
2019-04-11T21:22:24.298Z,95.60
2019-04-11T21:24:52.481Z,97.13
2019-04-11T21:27:20.200Z,94.77
2019-04-11T21:29:47.933Z,100.80
2019-04-11T21:32:15.748Z,93.87
2019-04-11T21:34:43.698Z,89.93
2019-04-11T21:37:11.441Z,91.70
2019-04-11T21:39:39.219Z,92.87
2019-04-11T21:42:06.923Z,95.67
2019-04-11T21:44:36.738Z,97.50
2019-04-11T21:47:04.382Z,91.80
2019-04-11T21:49:36.645Z,98.23
2019-04-11T21:52:03.154Z,90.10
2019-04-11T21:54:31.052Z,90.13
2019-04-11T21:56:58.803Z,89.53
2019-04-11T21:59:26.541Z,89.97
2019-04-11T22:01:54.758Z,101.13
2019-04-11T22:04:26.827Z,96.73
2019-04-11T22:06:52.180Z,94.33
2019-04-11T22:09:19.793Z,94.47
2019-04-11T22:11:47.526Z,97.57
2019-04-11T22:14:15.253Z,99.50
2019-04-11T22:16:45.147Z,97.10
2019-04-11T22:19:14.265Z,92.93
2019-04-11T22:21:45.062Z,88.97
2019-04-11T22:24:11.977Z,90.10
2019-04-11T22:26:39.717Z,93.50
2019-04-11T22:29:07.437Z,93.97
2019-04-11T22:31:35.171Z,90.00
2019-04-11T22:34:11.147Z,83.90
2019-04-11T22:36:38.869Z,93.57
2019-04-11T22:39:07.530Z,86.40
2019-04-11T22:41:54.645Z,81.23
2019-04-11T22:44:22.429Z,89.50
2019-04-11T22:46:50.175Z,87.03
2019-04-11T22:49:17.888Z,88.97
2019-04-11T22:51:45.625Z,89.40
2019-04-11T22:54:13.808Z,88.67
2019-04-11T22:56:41.865Z,90.93
2019-04-11T22:59:13.673Z,90.40
2019-04-11T23:01:39.581Z,80.33
2019-04-11T23:04:07.273Z,80.83
2019-04-11T23:06:34.993Z,83.97
2019-04-11T23:09:04.749Z,80.27
2019-04-11T23:11:32.461Z,73.90
2019-04-11T23:14:00.194Z,69.30
2019-04-11T23:16:27.906Z,75.27
2019-04-11T23:18:55.626Z,72.37
2019-04-11T23:21:23.345Z,67.70
2019-04-11T23:23:51.079Z,75.23
2019-04-11T23:26:18.784Z,62.63
2019-04-11T23:28:46.953Z,57.60
2019-04-11T23:31:15.472Z,60.67
2019-04-11T23:33:43.196Z,62.53
2019-04-11T23:36:10.912Z,60.43
2019-04-11T23:38:38.634Z,58.33
2019-04-11T23:41:06.340Z,55.97
2019-04-11T23:43:34.082Z,56.33
2019-04-11T23:46:01.840Z,53.13
2019-04-11T23:48:29.578Z,59.80
2019-04-11T23:50:57.277Z,56.60
2019-04-11T23:53:28.125Z,53.70
2019-04-11T23:55:54.516Z,63.40
2019-04-11T23:58:22.249Z,58.70
